Time;durP1;ratioP1;P1;durP2;ratioP2;P2;SDS_P1;SDS_P2;PMS_P1;PMS_P2;Temp;Humidity;BMP_temperature;BMP_pressure;BME280_temperature;BME280_humidity;BME280_pressure;Samples;Min_cycle;Max_cycle;Signal;HPM_P1;HPM_P2
2023/12/18 00:02:15;;;;;;;7.68;5.20;;;9.30;81.10;;;;;;4994999;28;20088;-75
2023/12/18 00:04:41;;;;;;;7.25;5.47;;;9.30;81.10;;;;;;4994770;28;20038;-76
2023/12/18 00:07:07;;;;;;;6.40;4.80;;;9.30;81.10;;;;;;4994280;28;20467;-75
2023/12/18 00:09:33;;;;;;;7.05;5.43;;;9.30;81.10;;;;;;4993729;28;20503;-76
2023/12/18 00:11:58;;;;;;;6.78;5.60;;;9.30;81.20;;;;;;4993305;28;20547;-76
2023/12/18 00:14:24;;;;;;;6.53;4.88;;;9.30;81.10;;;;;;4978738;28;20161;-75
2023/12/18 00:16:50;;;;;;;7.40;5.68;;;9.30;81.10;;;;;;4978004;28;20364;-75
2023/12/18 00:19:15;;;;;;;8.05;5.72;;;9.30;81.10;;;;;;4994370;28;20160;-74
2023/12/18 00:21:41;;;;;;;6.82;4.95;;;9.30;81.10;;;;;;4978093;28;20084;-75
2023/12/18 00:24:07;;;;;;;6.95;5.03;;;9.30;81.10;;;;;;4977535;28;20536;-76
2023/12/18 00:26:33;;;;;;;6.53;5.28;;;9.30;81.10;;;;;;4977827;28;20038;-76
2023/12/18 00:28:58;;;;;;;6.90;4.68;;;9.30;81.10;;;;;;4995196;28;20069;-76
2023/12/18 00:31:24;;;;;;;7.88;5.68;;;9.30;81.10;;;;;;4977815;28;20034;-76
2023/12/18 00:33:50;;;;;;;7.88;5.45;;;9.30;81.10;;;;;;4977874;28;20481;-75
2023/12/18 00:36:17;;;;;;;7.90;5.82;;;9.30;81.10;;;;;;4977565;28;20038;-76
2023/12/18 00:38:42;;;;;;;6.90;5.40;;;9.30;81.10;;;;;;4977808;28;20038;-77
2023/12/18 00:41:08;;;;;;;7.20;5.25;;;9.40;81.20;;;;;;4961407;28;20196;-75
2023/12/18 00:43:34;;;;;;;6.82;5.25;;;9.40;81.20;;;;;;4977309;28;20069;-75
2023/12/18 00:46:02;;;;;;;7.50;5.53;;;9.40;81.10;;;;;;4993605;28;20126;-78
2023/12/18 00:48:28;;;;;;;6.78;5.18;;;9.40;81.20;;;;;;4994957;28;20079;-75
2023/12/18 00:50:54;;;;;;;6.85;5.55;;;9.30;81.10;;;;;;4977131;28;20038;-76
2023/12/18 00:53:19;;;;;;;6.78;5.40;;;9.40;81.10;;;;;;4993468;28;20034;-75
2023/12/18 00:55:45;;;;;;;8.32;5.97;;;9.40;81.20;;;;;;4977104;28;20508;-76
2023/12/18 00:58:11;;;;;;;8.23;5.47;;;9.40;81.20;;;;;;4977104;28;20045;-75
2023/12/18 01:00:36;;;;;;;8.15;6.00;;;9.40;81.20;;;;;;4993350;28;20073;-76
2023/12/18 01:03:03;;;;;;;8.05;5.88;;;9.40;81.10;;;;;;4993079;28;20031;-77
2023/12/18 01:05:28;;;;;;;6.90;5.32;;;9.40;81.20;;;;;;4961014;28;20192;-77
2023/12/18 01:07:54;;;;;;;6.93;5.45;;;9.40;81.20;;;;;;4993146;28;20523;-75
2023/12/18 01:10:20;;;;;;;6.35;5.07;;;9.40;81.20;;;;;;4993135;28;20065;-75
2023/12/18 01:12:45;;;;;;;7.30;5.95;;;9.40;81.20;;;;;;4977676;28;20383;-76
2023/12/18 01:15:11;;;;;;;7.10;5.15;;;9.40;81.20;;;;;;4993517;28;20471;-76
2023/12/18 01:17:37;;;;;;;8.32;5.53;;;9.40;81.20;;;;;;4993049;28;20038;-76
2023/12/18 01:20:05;;;;;;;7.40;5.68;;;9.40;81.20;;;;;;4977060;28;20042;-77
2023/12/18 01:22:30;;;;;;;7.45;5.63;;;9.40;81.20;;;;;;4976586;28;20145;-75
2023/12/18 01:24:56;;;;;;;6.75;5.45;;;9.40;81.20;;;;;;4992927;28;20050;-76
2023/12/18 01:27:22;;;;;;;7.68;5.85;;;9.40;81.20;;;;;;4976961;28;20041;-76
2023/12/18 01:29:48;;;;;;;6.82;5.47;;;9.40;81.20;;;;;;4976704;28;20479;-75
2023/12/18 01:32:13;;;;;;;7.20;5.60;;;9.30;81.10;;;;;;4976677;28;20038;-76
2023/12/18 01:34:39;;;;;;;7.53;5.38;;;9.40;81.20;;;;;;4976432;28;20042;-76
2023/12/18 01:37:05;;;;;;;8.15;5.60;;;9.40;81.20;;;;;;4976476;28;20030;-76
2023/12/18 01:39:32;;;;;;;7.82;5.80;;;9.40;81.20;;;;;;4993565;28;20076;-75
2023/12/18 01:41:59;;;;;;;7.22;5.60;;;9.40;81.20;;;;;;4993030;28;20058;-75
2023/12/18 01:44:25;;;;;;;6.80;5.00;;;9.40;81.20;;;;;;4976379;28;20026;-75
2023/12/18 01:46:51;;;;;;;7.00;5.45;;;9.40;81.20;;;;;;4993594;28;20530;-75
2023/12/18 01:49:17;;;;;;;7.68;5.65;;;9.40;81.20;;;;;;4977076;28;20038;-75
2023/12/18 01:51:44;;;;;;;7.32;5.75;;;9.40;81.20;;;;;;4977113;28;20030;-75
2023/12/18 01:54:10;;;;;;;6.93;5.68;;;9.40;81.20;;;;;;4992602;28;20030;-75
2023/12/18 01:56:38;;;;;;;7.03;5.18;;;9.40;81.30;;;;;;4975925;28;20038;-76
2023/12/18 01:59:06;;;;;;;7.20;5.40;;;9.40;81.20;;;;;;4992798;28;20038;-73
2023/12/18 02:01:32;;;;;;;7.88;5.90;;;9.40;81.20;;;;;;4993072;28;20081;-75
2023/12/18 02:03:58;;;;;;;7.60;6.00;;;9.40;81.20;;;;;;4976223;28;20117;-76
2023/12/18 02:06:24;;;;;;;7.53;5.40;;;9.40;81.20;;;;;;4992125;28;20068;-76
2023/12/18 02:08:50;;;;;;;7.18;5.78;;;9.40;81.20;;;;;;4993516;28;20054;-76
2023/12/18 02:11:15;;;;;;;6.97;5.85;;;9.40;81.20;;;;;;4976202;28;20031;-76
2023/12/18 02:13:42;;;;;;;7.25;5.47;;;9.40;81.10;;;;;;4976554;28;20031;-77
2023/12/18 02:16:08;;;;;;;7.63;5.68;;;9.40;81.80;;;;;;4992819;28;20049;-76
2023/12/18 02:18:34;;;;;;;7.78;5.88;;;9.40;81.20;;;;;;4976250;28;20043;-76
2023/12/18 02:21:00;;;;;;;7.32;5.75;;;9.40;81.10;;;;;;4992607;28;20035;-75
2023/12/18 02:23:26;;;;;;;7.05;5.65;;;9.40;81.20;;;;;;4993107;28;20034;-74
2023/12/18 02:25:51;;;;;;;8.35;5.65;;;9.40;81.10;;;;;;4976789;28;20497;-76
2023/12/18 02:28:17;;;;;;;7.80;5.78;;;9.40;81.20;;;;;;4992321;28;20480;-76
2023/12/18 02:30:44;;;;;;;7.15;5.45;;;9.40;81.10;;;;;;4975825;28;20511;-75
2023/12/18 02:33:10;;;;;;;6.78;5.05;;;9.40;81.20;;;;;;4976276;28;20038;-75
2023/12/18 02:35:35;;;;;;;7.38;5.85;;;9.40;81.20;;;;;;4979928;28;20030;-77
2023/12/18 02:38:01;;;;;;;7.20;5.13;;;9.40;81.20;;;;;;4997965;28;20033;-75
2023/12/18 02:40:27;;;;;;;7.50;5.22;;;9.40;81.20;;;;;;4979738;28;20035;-75
2023/12/18 02:42:53;;;;;;;7.65;5.45;;;9.50;81.20;;;;;;4997361;28;20026;-75
2023/12/18 02:45:19;;;;;;;7.63;5.97;;;9.50;81.20;;;;;;4995657;28;20121;-75
2023/12/18 02:47:45;;;;;;;7.57;5.45;;;9.40;81.20;;;;;;4995812;28;20072;-76
2023/12/18 02:50:11;;;;;;;7.18;5.45;;;9.50;81.20;;;;;;4995512;28;20058;-76
2023/12/18 02:52:36;;;;;;;7.68;6.10;;;9.40;81.20;;;;;;4995499;28;20030;-75
2023/12/18 02:55:02;;;;;;;7.80;6.38;;;9.50;81.20;;;;;;4995716;28;20374;-76
2023/12/18 02:57:28;;;;;;;6.10;4.90;;;9.50;81.20;;;;;;4996186;28;20113;-76
2023/12/18 02:59:54;;;;;;;7.90;5.53;;;9.50;81.20;;;;;;4995579;28;20026;-75
2023/12/18 03:02:20;;;;;;;6.80;5.63;;;9.50;81.20;;;;;;4979439;28;20084;-75
2023/12/18 03:04:46;;;;;;;6.78;5.50;;;9.50;81.20;;;;;;4996095;28;20506;-77
2023/12/18 03:07:12;;;;;;;6.55;5.60;;;9.50;81.20;;;;;;4979669;28;20031;-75
2023/12/18 03:09:39;;;;;;;7.03;5.80;;;9.50;81.20;;;;;;4979034;28;20070;-79
2023/12/18 03:12:05;;;;;;;6.57;5.57;;;9.50;81.80;;;;;;4995559;28;20376;-77
2023/12/18 03:14:31;;;;;;;7.90;6.22;;;9.50;81.20;;;;;;4979768;28;20497;-76
2023/12/18 03:16:56;;;;;;;7.15;5.50;;;9.50;81.20;;;;;;4979899;28;20027;-77
2023/12/18 03:19:22;;;;;;;7.80;5.80;;;9.50;81.20;;;;;;4980099;28;20484;-77
2023/12/18 03:21:48;;;;;;;8.23;5.65;;;9.50;81.20;;;;;;4979393;28;20097;-78
2023/12/18 03:24:14;;;;;;;7.28;5.93;;;9.50;81.20;;;;;;4979280;28;20027;-77
2023/12/18 03:26:40;;;;;;;6.40;5.70;;;9.50;81.20;;;;;;4979212;28;20038;-77
2023/12/18 03:29:06;;;;;;;7.18;5.32;;;9.50;81.20;;;;;;4994869;28;20141;-77
2023/12/18 03:31:32;;;;;;;6.80;5.53;;;9.50;81.20;;;;;;4995344;28;20070;-77
2023/12/18 03:33:57;;;;;;;6.63;4.97;;;9.50;81.20;;;;;;4979091;28;20035;-78
2023/12/18 03:36:23;;;;;;;7.97;5.80;;;9.50;81.20;;;;;;4995230;28;20027;-78
2023/12/18 03:38:49;;;;;;;6.82;5.43;;;9.50;81.10;;;;;;4978840;28;20038;-77
2023/12/18 03:41:15;;;;;;;7.28;5.78;;;9.50;81.20;;;;;;4979210;28;20067;-77
2023/12/18 03:43:40;;;;;;;7.07;5.40;;;9.50;81.20;;;;;;4995466;28;20034;-78
2023/12/18 03:46:07;;;;;;;7.18;5.78;;;9.50;81.10;;;;;;4978839;28;20034;-78
2023/12/18 03:48:33;;;;;;;7.20;5.70;;;9.60;81.20;;;;;;4994823;28;20384;-77
2023/12/18 03:50:58;;;;;;;7.03;5.00;;;9.60;81.20;;;;;;4979016;28;20050;-77
2023/12/18 03:53:24;;;;;;;7.50;5.13;;;9.60;81.20;;;;;;4979301;28;20146;-76
2023/12/18 03:55:50;;;;;;;6.90;5.47;;;9.50;81.20;;;;;;4978794;28;20030;-77
2023/12/18 03:58:16;;;;;;;7.28;5.60;;;9.50;81.20;;;;;;4979415;28;20026;-78
2023/12/18 04:00:41;;;;;;;6.60;5.35;;;9.50;81.20;;;;;;4979500;28;20053;-77
2023/12/18 04:03:07;;;;;;;6.38;5.28;;;9.60;81.20;;;;;;4995310;28;20407;-77
2023/12/18 04:05:33;;;;;;;8.23;5.55;;;9.60;81.20;;;;;;4978847;28;20081;-77
2023/12/18 04:07:59;;;;;;;7.03;5.57;;;9.60;81.80;;;;;;4978590;28;20491;-77
2023/12/18 04:10:25;;;;;;;7.20;5.72;;;9.60;81.20;;;;;;4994751;28;20054;-78
2023/12/18 04:12:51;;;;;;;6.25;5.13;;;9.60;81.20;;;;;;4995182;28;20434;-78
2023/12/18 04:15:17;;;;;;;7.50;5.18;;;9.60;81.20;;;;;;4978767;28;20027;-79
2023/12/18 04:17:43;;;;;;;6.68;5.60;;;9.60;81.20;;;;;;4995492;28;20034;-78
2023/12/18 04:20:09;;;;;;;8.05;5.82;;;9.60;81.20;;;;;;4994539;28;20038;-79
2023/12/18 04:22:35;;;;;;;7.45;5.75;;;9.60;81.20;;;;;;4994787;28;20034;-76
2023/12/18 04:25:01;;;;;;;6.80;5.30;;;9.60;81.20;;;;;;4994541;28;20027;-79
2023/12/18 04:27:27;;;;;;;7.15;5.53;;;9.60;81.20;;;;;;4978419;28;20510;-78
2023/12/18 04:29:53;;;;;;;6.57;5.38;;;9.60;81.20;;;;;;4978518;28;20038;-80
2023/12/18 04:32:18;;;;;;;7.20;5.68;;;9.60;81.20;;;;;;4978369;28;20480;-78
2023/12/18 04:34:44;;;;;;;8.02;5.93;;;9.60;81.20;;;;;;4994297;28;20034;-77
2023/12/18 04:37:10;;;;;;;7.28;6.00;;;9.60;81.10;;;;;;4994736;28;20083;-77
2023/12/18 04:39:37;;;;;;;7.60;5.82;;;9.60;81.10;;;;;;4977434;28;20041;-78
2023/12/18 04:42:03;;;;;;;8.35;5.97;;;9.60;81.20;;;;;;4977541;28;20036;-78
2023/12/18 04:44:29;;;;;;;7.30;5.50;;;9.60;81.10;;;;;;4993796;28;20089;-77
2023/12/18 04:46:55;;;;;;;8.10;6.18;;;9.60;81.10;;;;;;4977853;28;20039;-78
2023/12/18 04:49:21;;;;;;;7.15;5.75;;;9.60;81.10;;;;;;4977826;28;20062;-78
2023/12/18 04:51:47;;;;;;;7.50;5.72;;;9.70;81.20;;;;;;4977593;28;20040;-77
2023/12/18 04:54:13;;;;;;;7.50;5.97;;;9.60;81.10;;;;;;4993646;28;20109;-77
2023/12/18 04:56:40;;;;;;;7.10;5.80;;;9.60;81.20;;;;;;4993002;28;20093;-77
2023/12/18 04:59:06;;;;;;;7.47;5.93;;;9.60;81.10;;;;;;4994073;28;20034;-77
2023/12/18 05:01:32;;;;;;;6.40;5.22;;;9.60;81.10;;;;;;4977215;28;20049;-78
2023/12/18 05:03:57;;;;;;;6.75;5.32;;;9.70;81.20;;;;;;4977962;28;20487;-78
2023/12/18 05:06:26;;;;;;;7.10;5.75;;;9.70;81.20;;;;;;4977649;28;20398;-78
2023/12/18 05:08:52;;;;;;;8.13;5.90;;;9.70;81.20;;;;;;4994416;28;20037;-79
2023/12/18 05:11:20;;;;;;;7.32;5.47;;;9.60;81.10;;;;;;4993937;28;20174;-79
2023/12/18 05:13:46;;;;;;;7.78;5.80;;;9.60;81.80;;;;;;4977674;28;20041;-79
2023/12/18 05:16:17;;;;;;;7.88;5.57;;;9.70;81.20;;;;;;4961162;28;20112;-79
2023/12/18 05:18:43;;;;;;;7.60;5.78;;;9.70;81.20;;;;;;4978311;28;20039;-79
2023/12/18 05:21:10;;;;;;;8.10;5.57;;;9.70;81.20;;;;;;4995047;28;20215;-78
2023/12/18 05:23:36;;;;;;;7.32;5.85;;;9.60;81.10;;;;;;4977653;28;20038;-79
2023/12/18 05:26:02;;;;;;;7.25;5.97;;;9.60;81.10;;;;;;4977166;28;20027;-80
2023/12/18 05:28:28;;;;;;;7.18;5.72;;;9.70;81.20;;;;;;4977054;28;20026;-80
2023/12/18 05:30:54;;;;;;;7.30;5.45;;;9.70;81.20;;;;;;4993344;28;20093;-79
2023/12/18 05:33:20;;;;;;;7.72;5.95;;;9.70;81.20;;;;;;4994824;28;20032;-79
2023/12/18 05:35:46;;;;;;;7.90;5.50;;;9.70;81.20;;;;;;4993749;28;20038;-79
2023/12/18 05:38:12;;;;;;;8.45;5.90;;;9.70;81.20;;;;;;4977378;28;20026;-79
2023/12/18 05:40:38;;;;;;;7.28;5.70;;;9.70;81.20;;;;;;4993738;28;20394;-79
2023/12/18 05:43:05;;;;;;;6.78;5.63;;;9.70;81.20;;;;;;4977526;28;20046;-79
2023/12/18 05:45:31;;;;;;;8.45;6.03;;;9.70;81.20;;;;;;4993892;28;20103;-79
2023/12/18 05:48:01;;;;;;;7.68;6.35;;;9.70;81.20;;;;;;4978050;28;20039;-79
2023/12/18 05:50:27;;;;;;;7.57;6.10;;;9.70;81.10;;;;;;4977029;28;20042;-79
2023/12/18 05:52:53;;;;;;;7.65;6.05;;;9.70;81.10;;;;;;4978169;28;20073;-78
2023/12/18 05:55:19;;;;;;;8.25;6.03;;;9.70;81.10;;;;;;4992775;28;20120;-78
2023/12/18 05:57:44;;;;;;;7.95;6.43;;;9.70;81.10;;;;;;4976830;28;20045;-78
2023/12/18 06:00:11;;;;;;;6.97;5.57;;;9.70;81.10;;;;;;4977242;28;20045;-77
2023/12/18 06:02:37;;;;;;;9.18;6.90;;;9.70;81.20;;;;;;4993309;28;20073;-77
2023/12/18 06:05:03;;;;;;;7.90;6.05;;;9.70;81.10;;;;;;4976517;28;20100;-78
2023/12/18 06:07:29;;;;;;;7.95;5.70;;;9.70;81.20;;;;;;4992956;28;20045;-78
2023/12/18 06:09:55;;;;;;;8.65;6.47;;;9.70;81.20;;;;;;4996708;28;20411;-77
2023/12/18 06:12:21;;;;;;;9.38;6.80;;;9.70;81.20;;;;;;4998015;28;20490;-78
2023/12/18 06:14:47;;;;;;;7.15;5.68;;;9.70;81.20;;;;;;4980591;28;20486;-78
2023/12/18 06:17:13;;;;;;;7.70;6.15;;;9.70;81.20;;;;;;4980579;28;20109;-78
2023/12/18 06:19:39;;;;;;;8.35;6.22;;;9.70;81.20;;;;;;4980428;28;20038;-77
2023/12/18 06:22:06;;;;;;;8.75;6.43;;;9.80;81.20;;;;;;4980483;28;20026;-79
2023/12/18 06:24:32;;;;;;;7.20;5.88;;;9.70;81.10;;;;;;4996586;28;20133;-78
2023/12/18 06:26:57;;;;;;;8.20;6.82;;;9.70;81.10;;;;;;4996651;28;20027;-78
2023/12/18 06:29:27;;;;;;;8.13;5.97;;;9.70;81.10;;;;;;4980343;28;20038;-77
2023/12/18 06:31:53;;;;;;;7.88;6.07;;;9.70;81.10;;;;;;4996380;28;20066;-78
2023/12/18 06:34:19;;;;;;;8.35;6.53;;;9.70;81.20;;;;;;4980809;28;20038;-78
2023/12/18 06:36:44;;;;;;;8.52;6.45;;;9.70;81.10;;;;;;4996179;28;20506;-78
2023/12/18 06:39:10;;;;;;;9.02;6.50;;;9.70;81.20;;;;;;4996656;28;20557;-78
2023/12/18 06:41:36;;;;;;;7.65;6.00;;;9.70;81.10;;;;;;4996756;28;20566;-77
2023/12/18 06:44:02;;;;;;;8.32;6.05;;;9.80;81.10;;;;;;4996453;28;20022;-77
2023/12/18 06:46:29;;;;;;;9.68;6.88;;;9.70;81.10;;;;;;4996063;28;20026;-77
2023/12/18 06:48:56;;;;;;;7.88;6.35;;;9.70;81.10;;;;;;4996446;28;20034;-79
2023/12/18 06:51:22;;;;;;;7.85;6.47;;;9.70;81.10;;;;;;4996612;28;20112;-77
2023/12/18 06:53:51;;;;;;;7.88;6.40;;;9.70;81.10;;;;;;4979631;28;20062;-79
2023/12/18 06:56:16;;;;;;;8.35;6.88;;;9.80;81.20;;;;;;4980464;28;20030;-78
2023/12/18 06:58:42;;;;;;;7.97;6.45;;;9.70;81.10;;;;;;4996241;28;20022;-78
2023/12/18 07:01:08;;;;;;;7.80;6.65;;;9.70;81.10;;;;;;4980338;28;20053;-78
2023/12/18 07:03:34;;;;;;;9.05;6.40;;;9.70;81.10;;;;;;4996857;28;20345;-79
2023/12/18 07:06:00;;;;;;;8.63;6.43;;;9.70;81.10;;;;;;4995679;28;20088;-79
2023/12/18 07:08:29;;;;;;;8.05;6.72;;;9.80;81.20;;;;;;4979690;28;20031;-80
2023/12/18 07:10:57;;;;;;;7.70;6.63;;;9.80;81.20;;;;;;4996176;28;20058;-80
2023/12/18 07:13:23;;;;;;;8.07;6.55;;;9.80;81.20;;;;;;4979785;28;20124;-78
2023/12/18 07:15:49;;;;;;;9.43;7.10;;;9.80;81.20;;;;;;4979852;28;20041;-78
2023/12/18 07:18:14;;;;;;;9.02;7.30;;;9.80;81.20;;;;;;4995476;28;20031;-76
2023/12/18 07:20:44;;;;;;;8.25;6.55;;;9.70;81.10;;;;;;4962518;28;20072;-78
2023/12/18 07:23:10;;;;;;;9.23;7.15;;;9.80;81.20;;;;;;4979160;28;20061;-77
2023/12/18 07:25:36;;;;;;;9.50;7.22;;;9.80;81.20;;;;;;4978820;28;20058;-77
2023/12/18 07:28:07;;;;;;;8.52;6.45;;;9.80;81.20;;;;;;4979268;28;20084;-78
2023/12/18 07:30:33;;;;;;;8.38;6.53;;;9.80;81.10;;;;;;4978899;28;20038;-79
2023/12/18 07:32:59;;;;;;;9.13;6.57;;;9.80;81.10;;;;;;4979302;28;20044;-79
2023/12/18 07:35:25;;;;;;;8.38;6.78;;;9.80;81.10;;;;;;4979723;28;20026;-79
2023/12/18 07:37:51;;;;;;;9.35;6.68;;;9.80;81.10;;;;;;4979439;28;20034;-79
2023/12/18 07:40:17;;;;;;;8.15;6.18;;;9.80;81.10;;;;;;4980066;28;20031;-77
2023/12/18 07:42:43;;;;;;;7.60;6.43;;;9.70;81.10;;;;;;4994937;28;20042;-78
2023/12/18 07:45:11;;;;;;;8.07;6.40;;;9.80;81.10;;;;;;4979125;28;20026;-78
2023/12/18 07:47:37;;;;;;;9.32;6.93;;;9.80;81.10;;;;;;4962964;28;20459;-78
2023/12/18 07:50:05;;;;;;;9.02;6.72;;;9.80;81.10;;;;;;4995228;28;20042;-79
2023/12/18 07:52:32;;;;;;;8.88;6.88;;;9.80;81.10;;;;;;4996195;28;20109;-79
2023/12/18 07:54:58;;;;;;;8.75;6.45;;;9.80;81.20;;;;;;4995794;28;20478;-79
2023/12/18 07:57:23;;;;;;;8.30;6.43;;;9.80;81.10;;;;;;4995342;28;20034;-77
2023/12/18 07:59:49;;;;;;;9.20;6.65;;;9.80;81.20;;;;;;4978510;28;20042;-77
2023/12/18 08:02:15;;;;;;;7.78;6.43;;;9.80;81.10;;;;;;4979065;28;20027;-77
2023/12/18 08:04:41;;;;;;;8.40;6.90;;;9.80;81.10;;;;;;4963173;28;20026;-77
2023/12/18 08:07:06;;;;;;;8.95;6.85;;;9.80;81.50;;;;;;4978749;28;20026;-78
2023/12/18 08:09:32;;;;;;;9.40;6.93;;;9.80;81.10;;;;;;4978238;28;20050;-78
2023/12/18 08:11:58;;;;;;;8.45;6.40;;;9.80;81.20;;;;;;4978552;28;20034;-78
2023/12/18 08:14:25;;;;;;;8.63;6.88;;;9.80;81.20;;;;;;4978830;28;20092;-78
2023/12/18 08:16:50;;;;;;;9.32;6.90;;;9.80;81.10;;;;;;4978850;28;20031;-78
2023/12/18 08:19:16;;;;;;;8.75;7.13;;;9.80;81.10;;;;;;4994593;28;20070;-79
2023/12/18 08:21:44;;;;;;;8.52;6.57;;;9.80;81.10;;;;;;4994456;28;20116;-77
2023/12/18 08:24:09;;;;;;;8.77;6.68;;;9.80;81.10;;;;;;4978432;28;20124;-78
2023/12/18 08:26:35;;;;;;;9.05;6.55;;;9.80;81.10;;;;;;4978842;28;20097;-78
2023/12/18 08:29:01;;;;;;;8.93;6.97;;;9.80;81.10;;;;;;4978018;28;20399;-78
2023/12/18 08:31:28;;;;;;;8.75;7.18;;;9.80;81.10;;;;;;4977775;28;20432;-78
2023/12/18 08:33:53;;;;;;;7.80;5.97;;;9.80;81.10;;;;;;4978623;28;20533;-78
2023/12/18 08:36:19;;;;;;;8.25;6.40;;;9.90;81.10;;;;;;4993953;28;20034;-78
2023/12/18 08:38:45;;;;;;;8.63;6.90;;;9.90;81.10;;;;;;4977903;28;20026;-80
2023/12/18 08:41:11;;;;;;;10.90;6.90;;;9.90;81.10;;;;;;4978143;28;20479;-80
2023/12/18 08:43:37;;;;;;;8.80;6.68;;;9.90;81.10;;;;;;4993885;28;20438;-80
2023/12/18 08:46:03;;;;;;;7.70;6.38;;;9.90;81.00;;;;;;4978872;28;20035;-81
2023/12/18 08:48:29;;;;;;;8.38;6.97;;;9.90;81.00;;;;;;4977936;28;20037;-79
2023/12/18 08:50:54;;;;;;;8.52;6.53;;;9.90;81.00;;;;;;4978647;28;20476;-82
2023/12/18 08:53:20;;;;;;;8.70;6.90;;;9.90;81.00;;;;;;4978315;28;20507;-78
2023/12/18 08:55:46;;;;;;;8.73;6.40;;;9.90;80.90;;;;;;4978260;28;20045;-78
2023/12/18 08:58:11;;;;;;;10.48;7.30;;;9.90;80.90;;;;;;4978162;28;20061;-79
2023/12/18 09:00:37;;;;;;;8.80;6.53;;;9.90;80.90;;;;;;4994678;28;20034;-78
2023/12/18 09:03:06;;;;;;;8.73;7.10;;;9.90;80.90;;;;;;4977925;28;20030;-78
2023/12/18 09:05:32;;;;;;;8.40;6.47;;;10.00;81.00;;;;;;4978328;28;20030;-80
2023/12/18 09:07:58;;;;;;;8.68;6.72;;;10.00;81.00;;;;;;4977471;28;20045;-78
2023/12/18 09:10:24;;;;;;;8.23;6.55;;;10.00;81.00;;;;;;4993540;28;20053;-79
2023/12/18 09:12:53;;;;;;;8.32;6.57;;;10.00;81.00;;;;;;4977829;28;20046;-78
2023/12/18 09:15:21;;;;;;;9.20;6.90;;;10.00;80.90;;;;;;4977498;28;20050;-79
2023/12/18 09:17:47;;;;;;;9.48;7.40;;;10.00;80.90;;;;;;4977481;28;20062;-79
2023/12/18 09:20:12;;;;;;;8.95;6.35;;;10.10;80.90;;;;;;4977909;28;20109;-79
2023/12/18 09:22:38;;;;;;;9.45;7.47;;;10.00;80.90;;;;;;4993409;28;20033;-79
2023/12/18 09:25:04;;;;;;;8.45;6.45;;;10.00;80.80;;;;;;4976879;28;20125;-80
2023/12/18 09:27:31;;;;;;;8.43;6.30;;;10.00;80.90;;;;;;4977436;28;20038;-81
2023/12/18 09:29:58;;;;;;;8.80;6.78;;;10.00;80.90;;;;;;4994386;28;20430;-79
2023/12/18 09:32:24;;;;;;;8.93;6.57;;;10.10;80.90;;;;;;4993656;28;20046;-80
2023/12/18 09:34:50;;;;;;;7.75;5.88;;;10.10;80.90;;;;;;4976996;28;20030;-79
2023/12/18 09:37:15;;;;;;;9.00;6.68;;;10.10;80.90;;;;;;4978066;28;20101;-80
2023/12/18 09:39:41;;;;;;;7.82;6.10;;;10.10;80.90;;;;;;4977127;28;20132;-80
2023/12/18 09:42:09;;;;;;;9.45;6.95;;;10.10;80.80;;;;;;4977441;28;20446;-80
2023/12/18 09:44:36;;;;;;;8.05;6.18;;;10.10;80.90;;;;;;4976799;28;20154;-79
2023/12/18 09:47:03;;;;;;;8.93;6.90;;;10.10;80.80;;;;;;4993481;28;20059;-81
2023/12/18 09:49:28;;;;;;;9.10;7.10;;;10.10;80.90;;;;;;4993618;28;20022;-79
2023/12/18 09:52:00;;;;;;;9.75;7.25;;;10.10;80.80;;;;;;4977576;28;20371;-80
2023/12/18 09:54:42;;;;;;;9.18;6.70;;;10.10;80.80;;;;;;4993345;28;20070;-88
2023/12/18 09:57:11;;;;;;;9.52;7.05;;;10.10;80.80;;;;;;4962580;28;20042;-79
2023/12/18 09:59:37;;;;;;;7.88;6.18;;;10.20;80.80;;;;;;4992445;28;20034;-80
2023/12/18 10:02:03;;;;;;;8.63;6.60;;;10.10;80.80;;;;;;4994018;28;20383;-80
2023/12/18 10:04:29;;;;;;;8.55;6.50;;;10.20;81.40;;;;;;4977212;28;20042;-80
2023/12/18 10:06:55;;;;;;;10.07;6.53;;;10.20;80.80;;;;;;4992680;28;20042;-81
2023/12/18 10:09:21;;;;;;;9.60;6.70;;;10.20;80.80;;;;;;4992523;28;20134;-78
2023/12/18 10:11:50;;;;;;;9.02;7.00;;;10.20;80.80;;;;;;4976421;28;20395;-80
2023/12/18 10:14:16;;;;;;;9.02;7.03;;;10.20;80.80;;;;;;4992219;28;20036;-79
2023/12/18 10:16:42;;;;;;;10.52;6.63;;;10.20;80.70;;;;;;4993156;28;20080;-79
2023/12/18 10:19:09;;;;;;;7.65;6.43;;;10.20;80.70;;;;;;4976824;28;20035;-79
2023/12/18 10:21:38;;;;;;;10.23;7.28;;;10.20;80.70;;;;;;4992736;28;20054;-79
2023/12/18 10:24:05;;;;;;;9.23;6.47;;;10.30;80.80;;;;;;4992552;28;20072;-79
2023/12/18 10:26:34;;;;;;;9.00;6.90;;;10.30;80.70;;;;;;4977155;28;20126;-78
2023/12/18 10:29:01;;;;;;;8.75;6.50;;;10.30;80.70;;;;;;4976568;28;20053;-80
2023/12/18 10:31:27;;;;;;;9.15;6.70;;;10.30;80.70;;;;;;4976591;28;20039;-79
2023/12/18 10:33:53;;;;;;;9.07;6.88;;;10.30;80.70;;;;;;4992668;28;20026;-79
2023/12/18 10:36:19;;;;;;;8.30;6.88;;;10.30;80.70;;;;;;4992899;28;20038;-79
2023/12/18 10:38:50;;;;;;;8.25;6.88;;;10.40;80.70;;;;;;4976556;28;20035;-80
2023/12/18 10:41:20;;;;;;;9.60;6.57;;;10.40;80.70;;;;;;4993501;28;20035;-79
2023/12/18 10:43:48;;;;;;;10.18;7.28;;;10.40;80.70;;;;;;4976457;28;20034;-78
2023/12/18 10:46:15;;;;;;;9.45;6.95;;;10.40;80.70;;;;;;4992371;28;20038;-79
2023/12/18 10:48:50;;;;;;;8.60;7.18;;;10.40;80.70;;;;;;4993027;28;20031;-78
2023/12/18 10:51:20;;;;;;;9.60;6.80;;;10.40;80.70;;;;;;4992894;28;20042;-80
2023/12/18 10:53:48;;;;;;;8.77;7.00;;;10.40;80.60;;;;;;4975958;28;20034;-78
2023/12/18 10:56:19;;;;;;;8.40;6.93;;;10.40;80.60;;;;;;4979151;28;20451;-78
2023/12/18 10:58:47;;;;;;;8.80;6.72;;;10.40;80.60;;;;;;4980520;28;20355;-78
2023/12/18 11:01:15;;;;;;;9.20;7.43;;;10.50;80.60;;;;;;4979994;28;20026;-76
2023/12/18 11:03:41;;;;;;;8.75;6.80;;;10.50;80.60;;;;;;4981125;28;20034;-78
2023/12/18 11:06:09;;;;;;;9.50;6.57;;;10.50;80.60;;;;;;4980236;28;20034;-78
2023/12/18 11:08:35;;;;;;;10.13;7.30;;;10.50;80.50;;;;;;4979633;28;20041;-78
2023/12/18 11:11:02;;;;;;;8.50;7.20;;;10.50;80.50;;;;;;4979465;28;20058;-79
2023/12/18 11:13:35;;;;;;;9.27;7.03;;;10.60;80.60;;;;;;4979681;28;20034;-79
2023/12/18 11:16:42;;;;;;;8.50;6.50;;;10.60;80.60;;;;;;4981147;28;20049;-78
2023/12/18 11:19:32;;;;;;;8.43;6.68;;;10.50;80.60;;;;;;4920677;29;20063;-78
2023/12/18 11:22:04;;;;;;;8.25;6.50;;;10.60;80.60;;;;;;4995092;28;20109;-78
2023/12/18 11:24:37;;;;;;;8.25;6.30;;;10.60;80.50;;;;;;4979929;28;20471;-79
2023/12/18 11:27:05;;;;;;;9.07;7.18;;;10.60;80.50;;;;;;4979612;28;20031;-78
2023/12/18 11:29:37;;;;;;;9.07;6.78;;;10.60;80.50;;;;;;4979750;28;20045;-78
2023/12/18 11:32:03;;;;;;;8.55;6.80;;;10.70;80.60;;;;;;4979344;28;20034;-78
2023/12/18 11:34:30;;;;;;;9.38;6.97;;;10.70;80.50;;;;;;4982415;28;20026;-80
2023/12/18 11:36:58;;;;;;;8.40;6.57;;;10.70;80.50;;;;;;4996026;28;20046;-79
2023/12/18 11:39:39;;;;;;;9.75;6.90;;;10.70;80.40;;;;;;4996651;28;20042;-79
2023/12/18 11:42:07;;;;;;;8.82;6.97;;;10.80;80.50;;;;;;4995734;28;20096;-80
2023/12/18 11:44:35;;;;;;;7.85;6.70;;;10.80;80.40;;;;;;4997711;28;20110;-78
2023/12/18 11:47:01;;;;;;;8.20;6.40;;;10.80;80.30;;;;;;4979963;28;20030;-82
2023/12/18 11:49:27;;;;;;;8.27;6.43;;;10.80;80.30;;;;;;4980852;28;20076;-79
2023/12/18 11:51:53;;;;;;;8.90;6.22;;;10.80;80.30;;;;;;4979742;28;20426;-79
2023/12/18 11:54:24;;;;;;;9.25;7.03;;;10.90;80.30;;;;;;4978837;28;20030;-79
2023/12/18 11:56:51;;;;;;;9.50;6.85;;;10.90;80.30;;;;;;4995510;28;20026;-79
2023/12/18 11:59:22;;;;;;;9.88;7.57;;;10.90;80.20;;;;;;4995386;28;20550;-79
2023/12/18 12:01:51;;;;;;;8.55;6.78;;;10.90;80.20;;;;;;4980067;28;20036;-79
2023/12/18 12:04:20;;;;;;;9.73;7.13;;;10.90;80.20;;;;;;4979229;28;20108;-78
2023/12/18 12:06:47;;;;;;;9.95;7.35;;;10.90;80.20;;;;;;4978918;28;20049;-78
2023/12/18 12:09:13;;;;;;;8.13;6.53;;;11.00;80.20;;;;;;4979036;28;20051;-79
2023/12/18 12:11:39;;;;;;;8.77;6.85;;;11.00;80.20;;;;;;4979281;28;20034;-79
2023/12/18 12:14:05;;;;;;;9.77;6.88;;;11.00;80.20;;;;;;4978627;28;20483;-79
2023/12/18 12:16:31;;;;;;;9.57;7.45;;;11.00;80.20;;;;;;4979072;28;20038;-79
2023/12/18 12:18:58;;;;;;;9.32;6.88;;;11.00;80.10;;;;;;4979161;28;20101;-79
2023/12/18 12:21:24;;;;;;;8.25;6.70;;;11.10;80.20;;;;;;4994735;28;20030;-79
2023/12/18 12:23:50;;;;;;;9.13;7.18;;;11.10;80.20;;;;;;4994995;28;20034;-79
2023/12/18 12:26:22;;;;;;;8.35;6.95;;;11.10;80.10;;;;;;4995485;28;20061;-79
2023/12/18 12:28:48;;;;;;;8.73;7.13;;;11.10;80.20;;;;;;4994175;28;20506;-78
2023/12/18 12:31:18;;;;;;;10.00;6.82;;;11.10;80.10;;;;;;4994674;28;20068;-79
2023/12/18 12:33:45;;;;;;;8.00;6.43;;;11.10;80.10;;;;;;4994676;28;20084;-80
2023/12/18 12:36:24;;;;;;;8.68;6.68;;;11.20;80.10;;;;;;4994779;28;20033;-80
2023/12/18 12:38:52;;;;;;;8.77;6.82;;;11.20;80.10;;;;;;4995023;28;20030;-80
2023/12/18 12:41:19;;;;;;;7.88;6.50;;;11.20;80.10;;;;;;4978501;28;20494;-81
2023/12/18 12:43:45;;;;;;;8.90;6.97;;;11.20;80.10;;;;;;4994738;28;20034;-80
2023/12/18 12:46:11;;;;;;;8.02;6.82;;;11.20;80.00;;;;;;4979167;28;20037;-80
2023/12/18 12:48:37;;;;;;;10.23;7.50;;;11.20;80.00;;;;;;4994981;28;20041;-80
2023/12/18 12:51:02;;;;;;;8.98;6.63;;;11.20;80.00;;;;;;4978507;28;20383;-80